createdAt,value
2018-11-23T00:00:44.070Z,85.20
2018-11-23T00:03:18.150Z,85.30
2018-11-23T00:05:52.401Z,85.40
2018-11-23T00:08:26.943Z,85.50
2018-11-23T00:11:00.668Z,85.60
2018-11-23T00:13:34.980Z,85.70
2018-11-23T00:16:09.165Z,85.40
2018-11-23T00:18:44.112Z,84.70
2018-11-23T00:21:18.277Z,84.70
2018-11-23T00:23:54.280Z,84.10
2018-11-23T00:26:28.075Z,84.10
2018-11-23T00:29:32.761Z,83.70
2018-11-23T00:32:06.579Z,83.90
2018-11-23T00:34:40.499Z,83.50
2018-11-23T00:37:14.624Z,83.30
2018-11-23T00:39:48.409Z,83.40
2018-11-23T00:42:22.480Z,83.20
2018-11-23T00:44:56.498Z,83.20
2018-11-23T00:47:30.535Z,83.40
2018-11-23T00:50:05.104Z,83.50
2018-11-23T00:52:39.128Z,83.30
2018-11-23T00:55:14.380Z,83.60
2018-11-23T00:57:49.147Z,83.80
2018-11-23T01:00:28.758Z,83.70
2018-11-23T01:03:03.803Z,83.50
2018-11-23T01:05:37.953Z,83.60
2018-11-23T01:08:25.992Z,83.20
2018-11-23T01:11:00.747Z,82.90
2018-11-23T01:13:34.979Z,82.00
2018-11-23T01:16:09.053Z,82.10
2018-11-23T01:18:42.928Z,81.80
2018-11-23T01:21:18.392Z,81.50
2018-11-23T01:23:52.559Z,80.40
2018-11-23T01:26:27.823Z,79.70
2018-11-23T01:29:01.599Z,78.50
2018-11-23T01:31:35.816Z,77.70
2018-11-23T01:34:11.045Z,78.30
2018-11-23T01:36:45.243Z,77.80
2018-11-23T01:39:19.368Z,77.90
2018-11-23T01:41:53.500Z,78.30
2018-11-23T01:44:27.547Z,78.30
2018-11-23T01:47:10.954Z,78.10
2018-11-23T01:49:44.907Z,77.40
2018-11-23T01:52:18.843Z,77.10
2018-11-23T01:54:52.928Z,77.30
2018-11-23T01:57:26.987Z,77.50
2018-11-23T02:00:31.878Z,77.20
2018-11-23T02:03:05.927Z,77.40
2018-11-23T02:05:40.676Z,76.50
2018-11-23T02:08:14.591Z,76.00
2018-11-23T02:10:48.686Z,75.20
2018-11-23T02:13:22.662Z,75.80
2018-11-23T02:15:56.755Z,75.90
2018-11-23T02:18:31.277Z,74.50
2018-11-23T02:21:05.020Z,74.90
2018-11-23T02:23:39.005Z,75.10
2018-11-23T02:26:13.279Z,75.20
2018-11-23T02:28:49.014Z,73.90
2018-11-23T02:31:28.060Z,72.60
2018-11-23T02:34:01.734Z,72.20
2018-11-23T02:36:40.201Z,72.30
2018-11-23T02:39:17.934Z,73.20
2018-11-23T02:41:54.921Z,72.40
2018-11-23T02:44:35.838Z,72.60
2018-11-23T02:47:14.658Z,71.50
2018-11-23T02:49:53.975Z,71.90
2018-11-23T02:52:32.781Z,72.10
2018-11-23T02:55:10.635Z,72.00
2018-11-23T02:57:52.896Z,72.30
2018-11-23T03:00:38.210Z,72.20
2018-11-23T03:03:18.462Z,72.90
2018-11-23T03:06:01.762Z,73.10
2018-11-23T03:08:39.021Z,72.90
2018-11-23T03:11:19.736Z,72.40
2018-11-23T03:13:58.441Z,71.10
2018-11-23T03:16:32.060Z,70.60
2018-11-23T03:19:06.627Z,69.90
2018-11-23T03:21:40.784Z,69.70
2018-11-23T03:24:15.241Z,69.20
2018-11-23T03:26:48.909Z,70.00
2018-11-23T03:29:23.302Z,70.10
2018-11-23T03:31:58.675Z,68.90
2018-11-23T03:34:33.693Z,68.70
2018-11-23T03:37:08.295Z,69.10
2018-11-23T03:39:42.150Z,68.00
2018-11-23T03:42:16.217Z,68.10
2018-11-23T03:44:49.849Z,67.00
2018-11-23T03:47:24.140Z,67.70
2018-11-23T03:49:58.193Z,66.10
2018-11-23T03:52:32.494Z,65.30
2018-11-23T03:55:06.282Z,65.20
2018-11-23T03:57:45.302Z,64.40
2018-11-23T04:00:24.328Z,64.80
2018-11-23T04:02:58.031Z,65.10
2018-11-23T04:05:32.644Z,65.10
2018-11-23T04:08:07.048Z,65.40
2018-11-23T04:10:40.742Z,64.30
2018-11-23T04:13:14.901Z,64.80
2018-11-23T04:15:49.067Z,63.70
2018-11-23T04:18:23.577Z,65.30
2018-11-23T04:21:02.711Z,64.80
2018-11-23T04:23:37.129Z,64.20
2018-11-23T04:26:11.425Z,63.30
2018-11-23T04:28:46.024Z,63.20
2018-11-23T04:31:19.794Z,63.40
2018-11-23T04:33:55.533Z,63.20
2018-11-23T04:36:29.754Z,63.20
2018-11-23T04:39:03.951Z,62.40
2018-11-23T04:41:38.152Z,61.70
2018-11-23T04:44:12.350Z,61.10
2018-11-23T04:46:46.720Z,61.90
2018-11-23T04:49:20.524Z,61.90
2018-11-23T04:51:54.985Z,60.50
2018-11-23T04:54:29.046Z,60.80
2018-11-23T04:57:03.523Z,60.10
2018-11-23T04:59:37.465Z,60.40
2018-11-23T05:02:11.432Z,60.80
2018-11-23T05:04:45.908Z,60.20
2018-11-23T05:07:19.846Z,59.90
2018-11-23T05:09:54.221Z,59.50
2018-11-23T05:12:28.299Z,59.00
2018-11-23T05:15:03.470Z,59.80
2018-11-23T05:17:37.643Z,59.60
2018-11-23T05:20:12.715Z,59.00
2018-11-23T05:22:46.720Z,58.50
2018-11-23T05:25:21.838Z,58.50
2018-11-23T05:28:00.427Z,58.90
2018-11-23T05:30:35.192Z,58.20
2018-11-23T05:33:09.317Z,58.30
2018-11-23T05:35:43.798Z,59.40
2018-11-23T05:38:18.711Z,60.00
2018-11-23T05:40:56.112Z,59.40
2018-11-23T05:43:31.246Z,58.90
2018-11-23T05:46:05.211Z,59.40
2018-11-23T05:48:39.288Z,59.70
2018-11-23T05:51:13.762Z,59.70
2018-11-23T05:53:47.781Z,59.10
2018-11-23T05:56:21.755Z,59.30
2018-11-23T05:58:56.501Z,59.40
2018-11-23T06:01:30.456Z,59.10
2018-11-23T06:04:04.706Z,58.70
2018-11-23T06:06:42.472Z,58.10
2018-11-23T06:09:13.506Z,58.20
2018-11-23T06:11:47.733Z,57.90
2018-11-23T06:14:21.486Z,58.40
2018-11-23T06:16:55.781Z,58.90
2018-11-23T06:19:29.777Z,58.00
2018-11-23T06:22:05.157Z,58.30
2018-11-23T06:24:45.463Z,58.30
2018-11-23T06:27:19.932Z,57.80
2018-11-23T06:29:53.652Z,58.00
2018-11-23T06:32:36.578Z,58.20
2018-11-23T06:35:10.668Z,58.30
2018-11-23T06:37:45.581Z,57.50
2018-11-23T06:40:19.957Z,57.50
2018-11-23T06:42:54.084Z,57.40
2018-11-23T06:45:27.904Z,57.00
2018-11-23T06:48:01.492Z,57.00
2018-11-23T06:50:35.311Z,57.10
2018-11-23T06:53:10.117Z,56.70
2018-11-23T06:55:44.237Z,56.70
2018-11-23T06:58:18.593Z,56.70
2018-11-23T07:00:52.339Z,56.20
2018-11-23T07:03:26.508Z,56.60
2018-11-23T07:06:01.358Z,56.80
2018-11-23T07:08:35.437Z,57.00
2018-11-23T07:11:09.525Z,56.70
2018-11-23T07:13:43.594Z,56.40
2018-11-23T07:16:17.898Z,56.70
2018-11-23T07:18:52.276Z,56.70
2018-11-23T07:24:17.941Z,56.50
2018-11-23T07:26:52.079Z,56.40
2018-11-23T07:29:25.987Z,56.80
2018-11-23T07:31:59.934Z,56.90
2018-11-23T07:34:33.803Z,56.80
2018-11-23T07:37:07.566Z,57.10
2018-11-23T07:39:52.321Z,56.90
2018-11-23T07:42:27.883Z,56.80
2018-11-23T07:45:01.725Z,57.00
2018-11-23T07:47:35.710Z,56.90
2018-11-23T07:50:10.969Z,56.70
2018-11-23T07:52:45.033Z,56.70
2018-11-23T07:55:18.957Z,56.50
2018-11-23T07:57:53.065Z,56.30
2018-11-23T08:00:28.056Z,55.80
2018-11-23T08:03:02.271Z,55.70
2018-11-23T08:05:36.069Z,55.40
2018-11-23T08:08:10.655Z,55.70
2018-11-23T08:10:42.955Z,55.70
2018-11-23T08:13:19.206Z,55.50
2018-11-23T08:15:53.151Z,55.70
2018-11-23T08:18:26.843Z,56.10
2018-11-23T08:21:00.529Z,55.90
2018-11-23T08:23:37.422Z,56.30
2018-11-23T08:26:42.158Z,56.20
2018-11-23T08:29:46.786Z,56.00
2018-11-23T08:32:20.960Z,55.80
2018-11-23T08:34:55.044Z,55.80
2018-11-23T08:37:29.384Z,55.90
2018-11-23T08:40:03.566Z,56.00
2018-11-23T08:42:37.920Z,56.40
2018-11-23T08:45:14.826Z,56.20
2018-11-23T08:47:49.039Z,56.20
2018-11-23T08:50:32.670Z,56.20
2018-11-23T08:53:06.296Z,56.50
2018-11-23T08:55:39.837Z,56.30
2018-11-23T08:58:13.955Z,56.50
2018-11-23T09:00:48.185Z,56.70
2018-11-23T09:03:22.626Z,56.90
2018-11-23T09:05:59.133Z,56.80
2018-11-23T09:08:35.517Z,56.70
2018-11-23T09:11:09.990Z,56.60
2018-11-23T09:13:44.403Z,56.50
2018-11-23T09:16:19.294Z,56.50
2018-11-23T09:18:54.767Z,57.30
2018-11-23T09:21:28.528Z,56.80
2018-11-23T09:24:02.295Z,56.70
2018-11-23T09:26:36.449Z,56.50
2018-11-23T09:29:10.475Z,56.70
2018-11-23T09:31:45.269Z,56.60
2018-11-23T09:34:19.452Z,56.50
2018-11-23T09:36:53.954Z,56.40
2018-11-23T09:39:27.628Z,56.40
2018-11-23T09:42:01.455Z,56.20
2018-11-23T09:44:35.872Z,56.20
2018-11-23T09:47:10.169Z,56.20
2018-11-23T09:49:44.378Z,56.40
2018-11-23T09:52:18.341Z,56.40
2018-11-23T09:54:52.087Z,56.40
2018-11-23T09:57:26.196Z,56.40
2018-11-23T09:59:59.771Z,56.60
2018-11-23T10:02:34.964Z,56.60
2018-11-23T10:05:10.023Z,56.80
2018-11-23T10:07:44.542Z,56.60
2018-11-23T10:10:25.268Z,55.30
2018-11-23T10:13:02.823Z,54.80
2018-11-23T10:15:37.355Z,54.50
2018-11-23T10:18:10.905Z,54.50
2018-11-23T10:20:45.043Z,54.50
2018-11-23T10:23:19.209Z,54.60
2018-11-23T10:25:52.970Z,54.80
2018-11-23T10:28:27.019Z,54.70
2018-11-23T10:31:00.994Z,54.90
2018-11-23T10:33:34.843Z,54.40
2018-11-23T10:36:09.746Z,54.30
2018-11-23T10:38:43.922Z,54.30
2018-11-23T10:41:30.876Z,54.10
2018-11-23T10:44:04.519Z,54.30
2018-11-23T10:49:13.817Z,54.40
2018-11-23T10:51:47.754Z,54.50
2018-11-23T10:54:22.623Z,54.80
2018-11-23T10:56:56.657Z,55.00
2018-11-23T10:59:30.821Z,55.10
2018-11-23T11:02:04.974Z,55.00
2018-11-23T11:04:44.648Z,55.10
2018-11-23T11:07:28.978Z,55.20
2018-11-23T11:10:02.876Z,55.30
2018-11-23T11:12:40.278Z,55.20
2018-11-23T11:15:18.109Z,55.10
2018-11-23T11:18:03.494Z,54.70
2018-11-23T11:20:39.283Z,55.40
2018-11-23T11:23:13.568Z,55.60
2018-11-23T11:25:47.689Z,55.70
2018-11-23T11:28:21.614Z,55.90
2018-11-23T11:30:56.704Z,56.00
2018-11-23T11:33:29.895Z,56.10
2018-11-23T11:36:04.240Z,56.20
2018-11-23T11:38:38.026Z,56.40
2018-11-23T11:41:13.024Z,56.40
2018-11-23T11:43:46.760Z,56.50
2018-11-23T11:46:23.019Z,56.50
2018-11-23T11:48:57.938Z,56.70
2018-11-23T11:51:31.788Z,56.60
2018-11-23T11:54:06.782Z,56.60
2018-11-23T11:56:40.902Z,56.60
2018-11-23T11:59:14.974Z,56.70
2018-11-23T12:01:48.963Z,56.50
2018-11-23T12:04:23.197Z,56.70
2018-11-23T12:06:58.730Z,56.80
2018-11-23T12:09:32.913Z,56.80
2018-11-23T12:12:06.787Z,56.90
2018-11-23T12:14:41.347Z,56.90
2018-11-23T12:17:15.337Z,56.90
2018-11-23T12:19:49.373Z,56.90
2018-11-23T12:22:23.093Z,57.00
2018-11-23T12:24:57.452Z,57.00
2018-11-23T12:27:31.424Z,57.10
2018-11-23T12:30:05.406Z,57.10
2018-11-23T12:32:39.426Z,57.10
2018-11-23T12:35:14.597Z,57.20
2018-11-23T12:37:48.271Z,57.30
2018-11-23T12:40:24.061Z,57.40
2018-11-23T12:42:58.068Z,57.40
2018-11-23T12:45:31.884Z,57.40
2018-11-23T12:48:06.016Z,57.50
2018-11-23T12:50:40.993Z,57.60
2018-11-23T12:53:15.072Z,57.60
2018-11-23T12:55:48.899Z,57.60
2018-11-23T12:58:23.616Z,57.70
2018-11-23T13:00:57.396Z,57.70
2018-11-23T13:03:31.422Z,57.80
2018-11-23T13:06:05.124Z,57.90
2018-11-23T13:08:39.592Z,57.90
2018-11-23T13:11:12.098Z,58.30
2018-11-23T13:13:46.500Z,58.00
2018-11-23T13:16:21.050Z,58.00
2018-11-23T13:18:55.382Z,58.00
2018-11-23T13:21:29.528Z,57.70
2018-11-23T13:24:04.169Z,58.10
2018-11-23T13:26:38.251Z,58.20
2018-11-23T13:29:16.161Z,58.20
2018-11-23T13:31:47.006Z,58.30
2018-11-23T13:34:22.717Z,58.30
2018-11-23T13:36:56.965Z,58.40
2018-11-23T13:39:31.210Z,58.40
2018-11-23T13:42:05.418Z,58.50
2018-11-23T13:44:39.902Z,58.50
2018-11-23T13:47:13.920Z,58.70
2018-11-23T13:49:47.938Z,58.60
2018-11-23T13:52:22.545Z,58.70
2018-11-23T13:54:57.405Z,58.60
2018-11-23T13:57:31.366Z,58.70
2018-11-23T14:00:06.071Z,58.80
2018-11-23T14:02:40.015Z,58.90
2018-11-23T14:05:16.509Z,59.20
2018-11-23T14:07:52.916Z,59.20
2018-11-23T14:10:27.810Z,59.20
2018-11-23T14:13:02.339Z,59.40
2018-11-23T14:15:37.576Z,59.50
2018-11-23T14:18:16.414Z,59.60
2018-11-23T14:21:21.230Z,59.80
2018-11-23T14:23:55.241Z,59.90
2018-11-23T14:26:29.739Z,60.10
2018-11-23T14:29:03.473Z,60.20
2018-11-23T14:31:37.776Z,60.50
2018-11-23T14:34:11.550Z,60.60
2018-11-23T14:36:45.453Z,60.80
2018-11-23T14:39:19.390Z,60.90
2018-11-23T14:41:53.431Z,61.00
2018-11-23T14:44:28.436Z,61.00
2018-11-23T14:47:02.245Z,61.00
2018-11-23T14:49:36.224Z,61.10
2018-11-23T14:52:09.560Z,61.10
2018-11-23T14:54:44.860Z,61.30
2018-11-23T14:57:18.743Z,61.30
2018-11-23T14:59:52.812Z,61.20
2018-11-23T15:02:26.833Z,61.80
2018-11-23T15:05:00.257Z,61.40
2018-11-23T15:07:34.418Z,61.50
2018-11-23T15:10:09.655Z,61.50
2018-11-23T15:12:43.511Z,61.50
2018-11-23T15:15:23.095Z,61.60
2018-11-23T15:17:57.402Z,61.70
2018-11-23T15:20:35.813Z,61.80
2018-11-23T15:23:13.220Z,62.00
2018-11-23T15:25:47.324Z,62.90
2018-11-23T15:28:20.980Z,62.10
2018-11-23T15:30:54.594Z,62.20
2018-11-23T15:33:28.517Z,62.40
2018-11-23T15:36:02.560Z,62.40
2018-11-23T15:38:36.580Z,62.50
2018-11-23T15:41:11.651Z,62.60
2018-11-23T15:43:45.397Z,63.60
2018-11-23T15:46:19.312Z,62.70
2018-11-23T15:48:53.369Z,62.80
2018-11-23T15:51:27.269Z,62.90
2018-11-23T15:54:01.221Z,62.90
2018-11-23T15:56:36.799Z,62.80
2018-11-23T15:59:10.942Z,62.80
2018-11-23T16:01:44.658Z,63.00
2018-11-23T16:04:19.071Z,63.10
2018-11-23T16:06:52.796Z,63.10
2018-11-23T16:09:26.787Z,63.10
2018-11-23T16:12:00.646Z,63.30
2018-11-23T16:14:34.647Z,63.30
2018-11-23T16:17:08.668Z,63.40
2018-11-23T16:19:42.598Z,63.40
2018-11-23T16:22:16.556Z,63.40
2018-11-23T16:24:50.557Z,63.50
2018-11-23T16:27:24.744Z,63.50
2018-11-23T16:29:58.360Z,63.70
2018-11-23T16:32:32.319Z,63.60
2018-11-23T16:35:05.871Z,63.70
2018-11-23T16:37:40.688Z,63.80
2018-11-23T16:40:16.550Z,63.90
2018-11-23T16:42:50.261Z,63.90
2018-11-23T16:45:26.527Z,64.00
2018-11-23T16:48:01.147Z,64.00
2018-11-23T16:50:40.846Z,64.20
2018-11-23T16:53:14.830Z,64.20
2018-11-23T16:55:49.743Z,64.40
2018-11-23T16:58:39.879Z,64.50
2018-11-23T17:01:19.637Z,64.40
2018-11-23T17:04:12.122Z,64.50
2018-11-23T17:06:45.875Z,64.60
2018-11-23T17:09:19.821Z,64.80
2018-11-23T17:11:57.758Z,64.70
2018-11-23T17:14:31.609Z,64.90
2018-11-23T17:17:05.566Z,64.70
2018-11-23T17:19:39.874Z,64.80
2018-11-23T17:22:14.920Z,65.10
2018-11-23T17:24:48.861Z,65.10
2018-11-23T17:27:23.351Z,65.10
2018-11-23T17:29:58.194Z,65.10
2018-11-23T17:32:32.298Z,65.10
2018-11-23T17:35:06.466Z,65.00
2018-11-23T17:37:41.520Z,65.10
2018-11-23T17:40:17.187Z,65.10
2018-11-23T17:42:51.354Z,65.00
2018-11-23T17:45:27.409Z,65.10
2018-11-23T17:48:00.983Z,65.10
2018-11-23T17:50:36.134Z,65.10
2018-11-23T17:53:10.711Z,65.10
2018-11-23T17:55:44.652Z,65.20
2018-11-23T17:58:18.640Z,65.20
2018-11-23T18:00:53.483Z,65.20
2018-11-23T18:03:27.706Z,65.30
2018-11-23T18:06:03.809Z,65.30
2018-11-23T18:08:39.068Z,65.30
2018-11-23T18:11:11.362Z,65.20
2018-11-23T18:13:45.438Z,65.20
2018-11-23T18:16:19.506Z,65.30
2018-11-23T18:18:53.289Z,65.30
2018-11-23T18:21:26.962Z,65.40
2018-11-23T18:24:01.522Z,65.20
2018-11-23T18:26:35.630Z,65.20
2018-11-23T18:29:09.668Z,65.30
2018-11-23T18:31:43.791Z,65.40
2018-11-23T18:34:17.700Z,65.40
2018-11-23T18:36:51.794Z,65.50
2018-11-23T18:39:25.724Z,65.50
2018-11-23T18:42:00.154Z,65.50
2018-11-23T18:44:34.136Z,65.60
2018-11-23T18:47:07.715Z,65.50
2018-11-23T18:49:41.783Z,65.50
2018-11-23T18:52:15.491Z,65.60
2018-11-23T18:54:49.513Z,65.40
2018-11-23T18:57:23.705Z,65.30
2018-11-23T18:59:57.439Z,65.30
2018-11-23T19:02:33.646Z,65.20
2018-11-23T19:05:07.678Z,65.40
2018-11-23T19:07:50.568Z,65.30
2018-11-23T19:10:24.665Z,65.50
2018-11-23T19:12:58.536Z,65.50
2018-11-23T19:15:32.184Z,65.60
2018-11-23T19:18:05.792Z,65.50
2018-11-23T19:20:40.159Z,65.50
2018-11-23T19:23:14.029Z,65.30
2018-11-23T19:25:48.529Z,65.10
2018-11-23T19:28:22.795Z,65.10
2018-11-23T19:30:56.406Z,64.90
2018-11-23T19:33:30.477Z,64.80
2018-11-23T19:36:04.286Z,64.90
2018-11-23T19:38:38.389Z,65.00
2018-11-23T19:41:12.354Z,65.00
2018-11-23T19:43:46.234Z,65.80
2018-11-23T19:46:20.343Z,65.00
2018-11-23T19:48:54.336Z,65.00
2018-11-23T19:51:27.953Z,65.00
2018-11-23T19:54:01.755Z,65.00
2018-11-23T19:56:35.307Z,65.00
2018-11-23T19:59:09.426Z,65.10
2018-11-23T20:01:43.140Z,65.20
2018-11-23T20:04:18.524Z,65.30
2018-11-23T20:06:52.718Z,65.30
2018-11-23T20:09:27.571Z,65.30
2018-11-23T20:12:00.983Z,65.30
2018-11-23T20:14:34.774Z,65.50
2018-11-23T20:17:10.091Z,65.50
2018-11-23T20:19:43.923Z,65.50
2018-11-23T20:22:18.048Z,65.50
2018-11-23T20:24:51.957Z,65.50
2018-11-23T20:27:26.729Z,65.60
2018-11-23T20:30:00.607Z,65.60
2018-11-23T20:32:34.607Z,65.60
2018-11-23T20:35:09.036Z,65.50
2018-11-23T20:37:43.115Z,65.60
2018-11-23T20:40:22.567Z,65.60
2018-11-23T20:42:56.887Z,65.60
2018-11-23T20:45:32.362Z,65.70
2018-11-23T20:48:06.753Z,65.70
2018-11-23T20:50:40.970Z,65.70
2018-11-23T20:53:15.060Z,65.70
2018-11-23T20:55:49.204Z,65.70
2018-11-23T20:58:23.731Z,65.70
2018-11-23T21:00:57.752Z,65.70
2018-11-23T21:03:31.884Z,65.70
2018-11-23T21:06:07.303Z,65.70
2018-11-23T21:08:41.413Z,66.50
2018-11-23T21:11:15.140Z,65.60
2018-11-23T21:13:49.093Z,65.70
2018-11-23T21:16:23.331Z,65.60
2018-11-23T21:18:56.875Z,65.60
2018-11-23T21:21:30.909Z,65.60
2018-11-23T21:24:05.002Z,65.40
2018-11-23T21:26:39.953Z,65.40
2018-11-23T21:29:15.047Z,65.40
2018-11-23T21:31:49.027Z,65.20
2018-11-23T21:34:22.611Z,65.20
2018-11-23T21:36:56.888Z,65.30
2018-11-23T21:39:31.164Z,65.40
2018-11-23T21:42:05.305Z,65.40
2018-11-23T21:44:39.687Z,65.30
2018-11-23T21:47:16.606Z,65.40
2018-11-23T21:49:51.157Z,65.30
2018-11-23T21:52:25.261Z,66.30
2018-11-23T21:55:06.272Z,65.30
2018-11-23T21:57:42.539Z,65.30
2018-11-23T22:00:20.364Z,65.30
2018-11-23T22:02:56.003Z,65.40
2018-11-23T22:05:29.820Z,65.40
2018-11-23T22:08:06.146Z,65.30
2018-11-23T22:10:40.617Z,65.30
2018-11-23T22:13:14.893Z,65.30
2018-11-23T22:15:49.648Z,65.50
2018-11-23T22:18:24.297Z,65.40
2018-11-23T22:20:59.277Z,65.40
2018-11-23T22:23:33.210Z,65.50
2018-11-23T22:26:07.242Z,65.40
2018-11-23T22:28:41.385Z,65.50
2018-11-23T22:31:15.901Z,66.40
2018-11-23T22:33:58.070Z,65.60
2018-11-23T22:36:35.672Z,65.60
2018-11-23T22:39:12.356Z,65.50
2018-11-23T22:41:46.261Z,65.50
2018-11-23T22:44:20.241Z,65.50
2018-11-23T22:46:54.430Z,65.60
2018-11-23T22:49:29.201Z,65.70
2018-11-23T22:52:02.982Z,65.80
2018-11-23T22:54:38.261Z,65.80
2018-11-23T22:57:15.820Z,65.70
2018-11-23T22:59:49.632Z,65.70
2018-11-23T23:02:27.789Z,65.80
2018-11-23T23:05:02.159Z,65.80
2018-11-23T23:07:36.529Z,65.90
2018-11-23T23:10:11.463Z,66.90
2018-11-23T23:12:45.623Z,66.00
2018-11-23T23:15:19.193Z,66.00
2018-11-23T23:17:53.573Z,66.10
2018-11-23T23:20:28.077Z,66.20
2018-11-23T23:23:02.342Z,66.30
2018-11-23T23:25:36.027Z,66.30
2018-11-23T23:28:10.052Z,66.40
2018-11-23T23:30:44.005Z,66.30
2018-11-23T23:33:18.272Z,66.40
2018-11-23T23:35:52.326Z,66.50
2018-11-23T23:38:27.024Z,66.50
2018-11-23T23:41:00.663Z,66.60
2018-11-23T23:43:34.939Z,66.60
2018-11-23T23:46:09.005Z,66.60
2018-11-23T23:48:42.876Z,66.60
2018-11-23T23:51:16.552Z,66.60
2018-11-23T23:53:50.313Z,66.70
2018-11-23T23:56:24.139Z,66.80
2018-11-23T23:58:57.681Z,66.90
